sensor_id;sensor_type;location;lat;lon;timestamp;P1;durP1;ratioP1;P2;durP2;ratioP2
47167;SDS011;32931;47.778;17.806;2022-08-04T08:51:08;11.63;;;2.20;;
47167;SDS011;32931;47.778;17.806;2022-08-04T09:03:09;5.43;;;1.90;;
47167;SDS011;32931;47.778;17.806;2022-08-04T09:11:25;7.38;;;2.10;;
47167;SDS011;32931;47.778;17.806;2022-08-04T09:14:09;8.32;;;2.03;;
47167;SDS011;32931;47.778;17.806;2022-08-04T09:16:50;4.03;;;1.73;;
47167;SDS011;32931;47.778;17.806;2022-08-04T09:19:26;10.23;;;1.90;;
47167;SDS011;32931;47.778;17.806;2022-08-04T09:22:32;8.95;;;2.03;;
47167;SDS011;32931;47.778;17.806;2022-08-04T09:28:10;10.40;;;1.85;;
47167;SDS011;32931;47.778;17.806;2022-08-04T09:30:46;8.50;;;2.00;;
47167;SDS011;32931;47.778;17.806;2022-08-04T09:41:58;10.85;;;1.90;;
47167;SDS011;32931;47.778;17.806;2022-08-04T09:48:02;9.13;;;2.47;;
47167;SDS011;32931;47.778;17.806;2022-08-04T09:50:38;9.15;;;2.10;;
47167;SDS011;32931;47.778;17.806;2022-08-04T10:01:34;9.93;;;1.60;;
47167;SDS011;32931;47.778;17.806;2022-08-04T10:04:04;6.55;;;1.77;;
47167;SDS011;32931;47.778;17.806;2022-08-04T10:12:15;12.88;;;1.67;;
47167;SDS011;32931;47.778;17.806;2022-08-04T10:15:02;4.43;;;1.42;;
47167;SDS011;32931;47.778;17.806;2022-08-04T10:20:29;10.95;;;1.77;;
47167;SDS011;32931;47.778;17.806;2022-08-04T10:28:55;9.88;;;1.70;;
47167;SDS011;32931;47.778;17.806;2022-08-04T10:31:27;15.90;;;1.80;;
47167;SDS011;32931;47.778;17.806;2022-08-04T10:34:00;4.18;;;1.38;;
47167;SDS011;32931;47.778;17.806;2022-08-04T10:43:04;2.72;;;1.60;;
47167;SDS011;32931;47.778;17.806;2022-08-04T10:45:46;5.45;;;1.70;;
47167;SDS011;32931;47.778;17.806;2022-08-04T10:54:16;5.22;;;1.60;;
47167;SDS011;32931;47.778;17.806;2022-08-04T10:57:54;7.35;;;1.55;;
47167;SDS011;32931;47.778;17.806;2022-08-04T10:59:55;3.97;;;1.50;;
47167;SDS011;32931;47.778;17.806;2022-08-04T11:02:45;6.80;;;1.50;;
47167;SDS011;32931;47.778;17.806;2022-08-04T11:07:46;4.18;;;1.60;;
47167;SDS011;32931;47.778;17.806;2022-08-04T11:10:14;7.15;;;1.60;;
47167;SDS011;32931;47.778;17.806;2022-08-04T11:12:46;3.85;;;1.83;;
47167;SDS011;32931;47.778;17.806;2022-08-04T11:15:20;6.97;;;1.48;;
47167;SDS011;32931;47.778;17.806;2022-08-04T11:18:08;8.02;;;1.50;;
47167;SDS011;32931;47.778;17.806;2022-08-04T11:20:43;6.22;;;1.48;;
47167;SDS011;32931;47.778;17.806;2022-08-04T11:23:17;4.40;;;1.48;;
47167;SDS011;32931;47.778;17.806;2022-08-04T11:25:56;5.57;;;1.60;;
47167;SDS011;32931;47.778;17.806;2022-08-04T11:50:10;8.82;;;1.83;;
47167;SDS011;32931;47.778;17.806;2022-08-04T11:52:42;3.90;;;1.40;;
47167;SDS011;32931;47.778;17.806;2022-08-04T11:55:10;13.25;;;2.00;;
47167;SDS011;32931;47.778;17.806;2022-08-04T11:57:40;5.75;;;1.85;;
47167;SDS011;32931;47.778;17.806;2022-08-04T12:00:08;5.45;;;1.70;;
47167;SDS011;32931;47.778;17.806;2022-08-04T12:08:39;5.30;;;1.30;;
47167;SDS011;32931;47.778;17.806;2022-08-04T12:16:47;7.38;;;1.50;;
47167;SDS011;32931;47.778;17.806;2022-08-04T12:19:28;4.57;;;1.60;;
47167;SDS011;32931;47.778;17.806;2022-08-04T12:21:57;4.20;;;1.63;;
47167;SDS011;32931;47.778;17.806;2022-08-04T12:24:40;5.15;;;1.40;;
47167;SDS011;32931;47.778;17.806;2022-08-04T12:27:24;2.83;;;1.58;;
47167;SDS011;32931;47.778;17.806;2022-08-04T12:29:56;8.85;;;1.75;;
47167;SDS011;32931;47.778;17.806;2022-08-04T12:32:24;6.43;;;1.67;;
47167;SDS011;32931;47.778;17.806;2022-08-04T12:40:02;8.85;;;1.50;;
47167;SDS011;32931;47.778;17.806;2022-08-04T12:42:35;5.45;;;1.50;;
47167;SDS011;32931;47.778;17.806;2022-08-04T12:45:11;7.05;;;1.60;;
47167;SDS011;32931;47.778;17.806;2022-08-04T12:47:39;13.23;;;1.52;;
47167;SDS011;32931;47.778;17.806;2022-08-04T12:50:06;5.18;;;1.70;;
47167;SDS011;32931;47.778;17.806;2022-08-04T12:52:47;3.38;;;1.38;;
47167;SDS011;32931;47.778;17.806;2022-08-04T12:55:18;6.45;;;1.35;;
47167;SDS011;32931;47.778;17.806;2022-08-04T12:57:48;8.32;;;1.48;;
47167;SDS011;32931;47.778;17.806;2022-08-04T13:00:23;9.82;;;1.65;;
47167;SDS011;32931;47.778;17.806;2022-08-04T13:02:52;4.93;;;1.50;;
47167;SDS011;32931;47.778;17.806;2022-08-04T13:05:23;9.52;;;1.55;;
47167;SDS011;32931;47.778;17.806;2022-08-04T13:07:52;3.35;;;1.30;;
47167;SDS011;32931;47.778;17.806;2022-08-04T13:10:20;11.43;;;1.73;;
47167;SDS011;32931;47.778;17.806;2022-08-04T13:12:54;10.05;;;1.70;;
47167;SDS011;32931;47.778;17.806;2022-08-04T13:15:23;5.93;;;1.60;;
47167;SDS011;32931;47.778;17.806;2022-08-04T13:18:08;4.25;;;1.35;;
47167;SDS011;32931;47.778;17.806;2022-08-04T13:20:37;6.10;;;1.60;;
47167;SDS011;32931;47.778;17.806;2022-08-04T13:23:10;8.07;;;1.60;;
47167;SDS011;32931;47.778;17.806;2022-08-04T13:25:40;10.00;;;1.75;;
47167;SDS011;32931;47.778;17.806;2022-08-04T13:28:27;6.30;;;1.40;;
47167;SDS011;32931;47.778;17.806;2022-08-04T13:30:55;4.45;;;1.50;;
47167;SDS011;32931;47.778;17.806;2022-08-04T13:33:36;8.35;;;1.50;;
47167;SDS011;32931;47.778;17.806;2022-08-04T13:36:04;4.55;;;1.48;;
47167;SDS011;32931;47.778;17.806;2022-08-04T13:38:32;6.82;;;1.55;;
47167;SDS011;32931;47.778;17.806;2022-08-04T13:41:03;5.18;;;1.60;;
47167;SDS011;32931;47.778;17.806;2022-08-04T13:43:32;7.53;;;2.05;;
47167;SDS011;32931;47.778;17.806;2022-08-04T13:46:05;3.42;;;1.30;;
47167;SDS011;32931;47.778;17.806;2022-08-04T13:48:32;6.55;;;1.50;;
47167;SDS011;32931;47.778;17.806;2022-08-04T13:51:03;4.07;;;1.30;;
47167;SDS011;32931;47.778;17.806;2022-08-04T13:53:31;5.20;;;1.75;;
47167;SDS011;32931;47.778;17.806;2022-08-04T13:55:59;5.13;;;1.38;;
47167;SDS011;32931;47.778;17.806;2022-08-04T13:58:29;2.20;;;1.42;;
47167;SDS011;32931;47.778;17.806;2022-08-04T14:00:58;4.70;;;1.40;;
47167;SDS011;32931;47.778;17.806;2022-08-04T14:09:26;5.72;;;1.45;;
47167;SDS011;32931;47.778;17.806;2022-08-04T14:11:54;6.05;;;1.48;;
47167;SDS011;32931;47.778;17.806;2022-08-04T14:14:29;4.65;;;1.48;;
47167;SDS011;32931;47.778;17.806;2022-08-04T14:17:11;7.00;;;1.98;;
47167;SDS011;32931;47.778;17.806;2022-08-04T14:24:56;9.18;;;1.70;;
47167;SDS011;32931;47.778;17.806;2022-08-04T14:27:23;9.57;;;1.58;;
47167;SDS011;32931;47.778;17.806;2022-08-04T14:29:50;53.53;;;2.78;;
47167;SDS011;32931;47.778;17.806;2022-08-04T14:32:16;3.53;;;1.30;;
47167;SDS011;32931;47.778;17.806;2022-08-04T14:34:43;7.30;;;1.20;;
47167;SDS011;32931;47.778;17.806;2022-08-04T14:37:12;5.50;;;1.50;;
47167;SDS011;32931;47.778;17.806;2022-08-04T14:39:42;7.00;;;1.38;;
47167;SDS011;32931;47.778;17.806;2022-08-04T14:42:14;3.30;;;1.38;;
47167;SDS011;32931;47.778;17.806;2022-08-04T14:45:02;6.18;;;1.40;;
47167;SDS011;32931;47.778;17.806;2022-08-04T14:47:45;3.33;;;1.20;;
47167;SDS011;32931;47.778;17.806;2022-08-04T14:50:12;9.88;;;1.30;;
47167;SDS011;32931;47.778;17.806;2022-08-04T14:52:39;6.18;;;1.38;;
47167;SDS011;32931;47.778;17.806;2022-08-04T14:55:15;9.65;;;1.40;;
47167;SDS011;32931;47.778;17.806;2022-08-04T14:57:46;6.13;;;1.38;;
47167;SDS011;32931;47.778;17.806;2022-08-04T15:00:28;4.57;;;1.27;;
47167;SDS011;32931;47.778;17.806;2022-08-04T15:03:00;4.10;;;1.15;;
47167;SDS011;32931;47.778;17.806;2022-08-04T15:05:33;4.28;;;1.38;;
47167;SDS011;32931;47.778;17.806;2022-08-04T15:08:04;4.77;;;1.17;;
47167;SDS011;32931;47.778;17.806;2022-08-04T15:10:31;7.65;;;1.40;;
47167;SDS011;32931;47.778;17.806;2022-08-04T15:12:57;7.18;;;1.50;;
47167;SDS011;32931;47.778;17.806;2022-08-04T15:15:24;2.97;;;1.00;;
47167;SDS011;32931;47.778;17.806;2022-08-04T15:17:51;7.72;;;1.27;;
47167;SDS011;32931;47.778;17.806;2022-08-04T15:20:18;4.53;;;1.20;;
47167;SDS011;32931;47.778;17.806;2022-08-04T15:22:45;3.70;;;1.27;;
47167;SDS011;32931;47.778;17.806;2022-08-04T15:25:11;6.30;;;1.33;;
47167;SDS011;32931;47.778;17.806;2022-08-04T15:27:38;7.63;;;1.30;;
47167;SDS011;32931;47.778;17.806;2022-08-04T15:30:09;3.35;;;1.23;;
47167;SDS011;32931;47.778;17.806;2022-08-04T15:35:07;3.42;;;1.42;;
47167;SDS011;32931;47.778;17.806;2022-08-04T15:40:15;5.82;;;1.20;;
47167;SDS011;32931;47.778;17.806;2022-08-04T15:42:47;4.32;;;1.27;;
47167;SDS011;32931;47.778;17.806;2022-08-04T15:45:26;2.05;;;1.15;;
47167;SDS011;32931;47.778;17.806;2022-08-04T15:50:30;5.93;;;1.20;;
47167;SDS011;32931;47.778;17.806;2022-08-04T15:55:36;6.50;;;1.45;;
47167;SDS011;32931;47.778;17.806;2022-08-04T15:58:05;5.25;;;1.20;;
47167;SDS011;32931;47.778;17.806;2022-08-04T16:16:30;7.57;;;1.25;;
47167;SDS011;32931;47.778;17.806;2022-08-04T16:21:53;9.73;;;1.40;;
47167;SDS011;32931;47.778;17.806;2022-08-04T16:24:21;3.38;;;1.33;;
47167;SDS011;32931;47.778;17.806;2022-08-04T16:26:53;4.82;;;1.27;;
47167;SDS011;32931;47.778;17.806;2022-08-04T16:37:12;8.45;;;1.30;;
47167;SDS011;32931;47.778;17.806;2022-08-04T16:39:40;2.58;;;1.15;;
47167;SDS011;32931;47.778;17.806;2022-08-04T16:48:07;6.40;;;1.20;;
47167;SDS011;32931;47.778;17.806;2022-08-04T16:50:56;6.07;;;1.30;;
47167;SDS011;32931;47.778;17.806;2022-08-04T16:53:23;5.95;;;1.23;;
47167;SDS011;32931;47.778;17.806;2022-08-04T16:55:51;6.70;;;1.23;;
47167;SDS011;32931;47.778;17.806;2022-08-04T16:58:26;8.82;;;1.45;;
47167;SDS011;32931;47.778;17.806;2022-08-04T17:00:55;3.90;;;1.17;;
47167;SDS011;32931;47.778;17.806;2022-08-04T17:03:22;4.55;;;1.40;;
47167;SDS011;32931;47.778;17.806;2022-08-04T17:05:49;3.78;;;1.20;;
47167;SDS011;32931;47.778;17.806;2022-08-04T17:08:15;12.85;;;1.45;;
47167;SDS011;32931;47.778;17.806;2022-08-04T17:10:45;2.90;;;1.15;;
47167;SDS011;32931;47.778;17.806;2022-08-04T17:13:34;7.60;;;1.40;;
47167;SDS011;32931;47.778;17.806;2022-08-04T17:16:03;3.83;;;1.30;;
47167;SDS011;32931;47.778;17.806;2022-08-04T17:18:36;3.30;;;1.35;;
47167;SDS011;32931;47.778;17.806;2022-08-04T17:21:08;7.45;;;1.30;;
47167;SDS011;32931;47.778;17.806;2022-08-04T17:23:41;7.43;;;1.30;;
47167;SDS011;32931;47.778;17.806;2022-08-04T17:26:13;13.45;;;1.80;;
47167;SDS011;32931;47.778;17.806;2022-08-04T17:28:47;8.32;;;1.40;;
47167;SDS011;32931;47.778;17.806;2022-08-04T17:31:15;12.75;;;1.75;;
47167;SDS011;32931;47.778;17.806;2022-08-04T17:33:45;12.52;;;1.75;;
47167;SDS011;32931;47.778;17.806;2022-08-04T17:36:13;4.93;;;1.55;;
47167;SDS011;32931;47.778;17.806;2022-08-04T17:38:41;7.88;;;1.60;;
47167;SDS011;32931;47.778;17.806;2022-08-04T17:41:13;19.77;;;1.50;;
47167;SDS011;32931;47.778;17.806;2022-08-04T17:43:48;8.02;;;1.40;;
47167;SDS011;32931;47.778;17.806;2022-08-04T17:51:31;4.13;;;1.42;;
47167;SDS011;32931;47.778;17.806;2022-08-04T17:54:07;46.40;;;2.72;;
47167;SDS011;32931;47.778;17.806;2022-08-04T17:56:38;11.38;;;1.63;;
47167;SDS011;32931;47.778;17.806;2022-08-04T18:01:41;3.78;;;1.48;;
47167;SDS011;32931;47.778;17.806;2022-08-04T18:04:33;7.22;;;1.40;;
47167;SDS011;32931;47.778;17.806;2022-08-04T18:07:19;4.50;;;1.40;;
47167;SDS011;32931;47.778;17.806;2022-08-04T18:12:21;9.40;;;1.85;;
47167;SDS011;32931;47.778;17.806;2022-08-04T18:14:57;7.70;;;1.73;;
47167;SDS011;32931;47.778;17.806;2022-08-04T18:17:37;10.82;;;1.95;;
47167;SDS011;32931;47.778;17.806;2022-08-04T18:20:08;6.65;;;1.65;;
47167;SDS011;32931;47.778;17.806;2022-08-04T18:22:38;4.03;;;1.90;;
47167;SDS011;32931;47.778;17.806;2022-08-04T18:25:09;5.43;;;1.67;;
47167;SDS011;32931;47.778;17.806;2022-08-04T18:27:53;9.10;;;2.17;;
47167;SDS011;32931;47.778;17.806;2022-08-04T18:30:21;7.82;;;2.00;;
47167;SDS011;32931;47.778;17.806;2022-08-04T18:32:50;8.48;;;2.33;;
47167;SDS011;32931;47.778;17.806;2022-08-04T18:35:18;7.18;;;1.83;;
47167;SDS011;32931;47.778;17.806;2022-08-04T18:37:45;7.25;;;2.03;;
47167;SDS011;32931;47.778;17.806;2022-08-04T18:40:11;6.88;;;2.10;;
47167;SDS011;32931;47.778;17.806;2022-08-04T18:42:38;23.88;;;2.95;;
47167;SDS011;32931;47.778;17.806;2022-08-04T18:45:05;40.70;;;3.67;;
47167;SDS011;32931;47.778;17.806;2022-08-04T18:47:34;20.55;;;2.42;;
47167;SDS011;32931;47.778;17.806;2022-08-04T18:50:00;18.52;;;2.70;;
47167;SDS011;32931;47.778;17.806;2022-08-04T18:52:26;12.75;;;1.98;;
47167;SDS011;32931;47.778;17.806;2022-08-04T18:54:53;19.95;;;2.03;;
47167;SDS011;32931;47.778;17.806;2022-08-04T18:57:22;13.70;;;2.55;;
47167;SDS011;32931;47.778;17.806;2022-08-04T18:59:52;22.38;;;2.50;;
47167;SDS011;32931;47.778;17.806;2022-08-04T19:02:19;23.45;;;2.67;;
47167;SDS011;32931;47.778;17.806;2022-08-04T19:04:46;17.52;;;2.45;;
47167;SDS011;32931;47.778;17.806;2022-08-04T19:07:13;41.15;;;2.90;;
47167;SDS011;32931;47.778;17.806;2022-08-04T19:09:40;34.67;;;2.75;;
47167;SDS011;32931;47.778;17.806;2022-08-04T19:12:07;22.48;;;2.63;;
47167;SDS011;32931;47.778;17.806;2022-08-04T19:14:33;19.73;;;2.08;;
47167;SDS011;32931;47.778;17.806;2022-08-04T19:17:00;28.48;;;2.25;;
47167;SDS011;32931;47.778;17.806;2022-08-04T19:19:26;52.85;;;3.85;;
47167;SDS011;32931;47.778;17.806;2022-08-04T19:21:52;16.58;;;2.30;;
47167;SDS011;32931;47.778;17.806;2022-08-04T19:24:18;11.07;;;2.10;;
47167;SDS011;32931;47.778;17.806;2022-08-04T19:26:45;7.40;;;1.67;;
47167;SDS011;32931;47.778;17.806;2022-08-04T19:29:11;7.72;;;2.30;;
47167;SDS011;32931;47.778;17.806;2022-08-04T19:31:39;11.13;;;1.95;;
47167;SDS011;32931;47.778;17.806;2022-08-04T19:34:06;8.25;;;2.17;;
47167;SDS011;32931;47.778;17.806;2022-08-04T19:36:33;14.65;;;2.03;;
47167;SDS011;32931;47.778;17.806;2022-08-04T19:39:00;6.63;;;1.90;;
47167;SDS011;32931;47.778;17.806;2022-08-04T19:41:29;7.60;;;2.00;;
47167;SDS011;32931;47.778;17.806;2022-08-04T19:44:03;5.70;;;2.08;;
47167;SDS011;32931;47.778;17.806;2022-08-04T19:46:31;12.40;;;2.10;;
47167;SDS011;32931;47.778;17.806;2022-08-04T19:48:58;8.02;;;2.03;;
47167;SDS011;32931;47.778;17.806;2022-08-04T19:51:25;10.10;;;2.30;;
47167;SDS011;32931;47.778;17.806;2022-08-04T19:53:52;9.40;;;2.40;;
47167;SDS011;32931;47.778;17.806;2022-08-04T19:56:19;10.25;;;1.98;;
47167;SDS011;32931;47.778;17.806;2022-08-04T19:58:45;10.20;;;2.00;;
47167;SDS011;32931;47.778;17.806;2022-08-04T20:01:11;9.25;;;2.00;;
47167;SDS011;32931;47.778;17.806;2022-08-04T20:03:38;5.28;;;1.90;;
47167;SDS011;32931;47.778;17.806;2022-08-04T20:06:04;7.38;;;2.10;;
47167;SDS011;32931;47.778;17.806;2022-08-04T20:08:30;11.95;;;2.50;;
47167;SDS011;32931;47.778;17.806;2022-08-04T20:10:57;4.70;;;1.60;;
47167;SDS011;32931;47.778;17.806;2022-08-04T20:13:24;7.57;;;2.00;;
47167;SDS011;32931;47.778;17.806;2022-08-04T20:15:51;9.45;;;1.90;;
47167;SDS011;32931;47.778;17.806;2022-08-04T20:18:18;10.02;;;2.22;;
47167;SDS011;32931;47.778;17.806;2022-08-04T20:20:44;4.80;;;2.15;;
47167;SDS011;32931;47.778;17.806;2022-08-04T20:23:11;5.63;;;2.15;;
47167;SDS011;32931;47.778;17.806;2022-08-04T20:25:37;9.57;;;2.30;;
47167;SDS011;32931;47.778;17.806;2022-08-04T20:28:03;8.50;;;1.90;;
47167;SDS011;32931;47.778;17.806;2022-08-04T20:30:30;30.35;;;2.53;;
47167;SDS011;32931;47.778;17.806;2022-08-04T20:32:57;4.40;;;2.05;;
47167;SDS011;32931;47.778;17.806;2022-08-04T20:35:25;5.72;;;2.20;;
47167;SDS011;32931;47.778;17.806;2022-08-04T20:37:53;6.40;;;2.22;;
47167;SDS011;32931;47.778;17.806;2022-08-04T20:40:19;10.00;;;2.20;;
47167;SDS011;32931;47.778;17.806;2022-08-04T20:42:46;6.50;;;2.17;;
47167;SDS011;32931;47.778;17.806;2022-08-04T20:45:12;16.73;;;2.30;;
47167;SDS011;32931;47.778;17.806;2022-08-04T20:47:38;32.47;;;2.40;;
47167;SDS011;32931;47.778;17.806;2022-08-04T20:50:05;5.32;;;2.00;;
47167;SDS011;32931;47.778;17.806;2022-08-04T20:52:32;12.27;;;2.20;;
47167;SDS011;32931;47.778;17.806;2022-08-04T20:55:01;10.60;;;2.33;;
47167;SDS011;32931;47.778;17.806;2022-08-04T20:57:29;12.20;;;2.38;;
47167;SDS011;32931;47.778;17.806;2022-08-04T20:59:55;43.30;;;3.55;;
47167;SDS011;32931;47.778;17.806;2022-08-04T21:02:21;29.88;;;2.47;;
47167;SDS011;32931;47.778;17.806;2022-08-04T21:04:49;27.42;;;2.67;;
47167;SDS011;32931;47.778;17.806;2022-08-04T21:07:15;11.27;;;2.22;;
47167;SDS011;32931;47.778;17.806;2022-08-04T21:09:42;42.17;;;2.80;;
47167;SDS011;32931;47.778;17.806;2022-08-04T21:12:11;27.52;;;2.53;;
47167;SDS011;32931;47.778;17.806;2022-08-04T21:14:39;6.97;;;2.10;;
47167;SDS011;32931;47.778;17.806;2022-08-04T21:17:06;21.25;;;2.70;;
47167;SDS011;32931;47.778;17.806;2022-08-04T21:19:33;12.23;;;1.90;;
47167;SDS011;32931;47.778;17.806;2022-08-04T21:21:59;7.25;;;1.85;;
47167;SDS011;32931;47.778;17.806;2022-08-04T21:24:26;7.30;;;1.75;;
47167;SDS011;32931;47.778;17.806;2022-08-04T21:26:53;8.23;;;1.88;;
47167;SDS011;32931;47.778;17.806;2022-08-04T21:29:21;6.82;;;1.80;;
47167;SDS011;32931;47.778;17.806;2022-08-04T21:31:47;12.73;;;2.30;;
47167;SDS011;32931;47.778;17.806;2022-08-04T21:34:14;7.75;;;2.00;;
47167;SDS011;32931;47.778;17.806;2022-08-04T21:36:41;6.97;;;2.10;;
47167;SDS011;32931;47.778;17.806;2022-08-04T21:39:08;5.63;;;2.17;;
47167;SDS011;32931;47.778;17.806;2022-08-04T21:41:36;11.18;;;2.13;;
47167;SDS011;32931;47.778;17.806;2022-08-04T21:44:03;4.53;;;1.80;;
47167;SDS011;32931;47.778;17.806;2022-08-04T21:46:30;4.55;;;1.75;;
47167;SDS011;32931;47.778;17.806;2022-08-04T21:48:56;15.93;;;2.30;;
47167;SDS011;32931;47.778;17.806;2022-08-04T21:51:24;59.20;;;3.65;;
47167;SDS011;32931;47.778;17.806;2022-08-04T21:53:52;8.48;;;1.73;;
47167;SDS011;32931;47.778;17.806;2022-08-04T21:56:18;11.23;;;1.80;;
47167;SDS011;32931;47.778;17.806;2022-08-04T21:58:44;13.75;;;2.15;;
47167;SDS011;32931;47.778;17.806;2022-08-04T22:01:11;22.02;;;2.20;;
47167;SDS011;32931;47.778;17.806;2022-08-04T22:03:38;40.25;;;3.00;;
47167;SDS011;32931;47.778;17.806;2022-08-04T22:06:11;39.10;;;2.70;;
47167;SDS011;32931;47.778;17.806;2022-08-04T22:08:38;15.43;;;2.42;;
47167;SDS011;32931;47.778;17.806;2022-08-04T22:14:03;37.38;;;3.05;;
47167;SDS011;32931;47.778;17.806;2022-08-04T22:16:33;10.43;;;2.03;;
47167;SDS011;32931;47.778;17.806;2022-08-04T22:19:01;9.27;;;1.92;;
47167;SDS011;32931;47.778;17.806;2022-08-04T22:21:29;24.60;;;2.30;;
47167;SDS011;32931;47.778;17.806;2022-08-04T22:23:56;25.48;;;2.40;;
47167;SDS011;32931;47.778;17.806;2022-08-04T22:26:26;20.23;;;2.97;;
47167;SDS011;32931;47.778;17.806;2022-08-04T22:28:54;7.90;;;2.05;;
47167;SDS011;32931;47.778;17.806;2022-08-04T22:31:21;13.27;;;2.30;;
47167;SDS011;32931;47.778;17.806;2022-08-04T22:33:48;3.97;;;1.88;;
47167;SDS011;32931;47.778;17.806;2022-08-04T22:36:16;5.65;;;1.98;;
47167;SDS011;32931;47.778;17.806;2022-08-04T22:38:43;5.82;;;1.88;;
47167;SDS011;32931;47.778;17.806;2022-08-04T22:41:11;4.88;;;1.63;;
47167;SDS011;32931;47.778;17.806;2022-08-04T22:43:38;7.97;;;1.95;;
47167;SDS011;32931;47.778;17.806;2022-08-04T22:46:06;4.90;;;1.70;;
47167;SDS011;32931;47.778;17.806;2022-08-04T22:48:36;4.13;;;2.17;;
47167;SDS011;32931;47.778;17.806;2022-08-04T22:51:04;8.73;;;2.60;;
47167;SDS011;32931;47.778;17.806;2022-08-04T22:53:31;8.80;;;1.80;;
47167;SDS011;32931;47.778;17.806;2022-08-04T22:55:57;9.20;;;1.92;;
47167;SDS011;32931;47.778;17.806;2022-08-04T22:58:24;10.98;;;1.92;;
47167;SDS011;32931;47.778;17.806;2022-08-04T23:00:50;5.95;;;2.03;;
47167;SDS011;32931;47.778;17.806;2022-08-04T23:03:16;3.80;;;1.90;;
47167;SDS011;32931;47.778;17.806;2022-08-04T23:05:43;3.05;;;1.85;;
47167;SDS011;32931;47.778;17.806;2022-08-04T23:08:09;6.88;;;2.22;;
47167;SDS011;32931;47.778;17.806;2022-08-04T23:10:35;3.17;;;2.00;;
47167;SDS011;32931;47.778;17.806;2022-08-04T23:13:01;2.95;;;1.90;;
47167;SDS011;32931;47.778;17.806;2022-08-04T23:15:27;4.90;;;1.70;;
47167;SDS011;32931;47.778;17.806;2022-08-04T23:17:54;3.53;;;1.60;;
47167;SDS011;32931;47.778;17.806;2022-08-04T23:20:20;10.07;;;2.47;;
47167;SDS011;32931;47.778;17.806;2022-08-04T23:22:46;5.82;;;2.13;;
47167;SDS011;32931;47.778;17.806;2022-08-04T23:25:13;3.70;;;1.90;;
47167;SDS011;32931;47.778;17.806;2022-08-04T23:27:39;5.30;;;2.00;;
47167;SDS011;32931;47.778;17.806;2022-08-04T23:30:06;7.28;;;1.83;;
47167;SDS011;32931;47.778;17.806;2022-08-04T23:32:33;4.72;;;1.80;;
47167;SDS011;32931;47.778;17.806;2022-08-04T23:34:59;10.45;;;2.30;;
47167;SDS011;32931;47.778;17.806;2022-08-04T23:37:25;9.20;;;2.00;;
47167;SDS011;32931;47.778;17.806;2022-08-04T23:39:51;11.68;;;2.00;;
47167;SDS011;32931;47.778;17.806;2022-08-04T23:42:17;13.88;;;2.30;;
47167;SDS011;32931;47.778;17.806;2022-08-04T23:44:44;6.50;;;2.10;;
47167;SDS011;32931;47.778;17.806;2022-08-04T23:47:10;3.65;;;1.88;;
47167;SDS011;32931;47.778;17.806;2022-08-04T23:49:36;6.60;;;2.17;;
47167;SDS011;32931;47.778;17.806;2022-08-04T23:52:03;5.38;;;2.10;;
47167;SDS011;32931;47.778;17.806;2022-08-04T23:54:29;10.25;;;2.42;;
47167;SDS011;32931;47.778;17.806;2022-08-04T23:56:56;5.07;;;1.90;;
47167;SDS011;32931;47.778;17.806;2022-08-04T23:59:22;7.05;;;2.00;;
